^^
Datos históricos de la estación: Murcia-Puente Tocinos
Diario Informe para Septiembre 6, 2019 Unidades:  Ingés    Métrico   Ambas
Diario Semanal Mensual Anual
  Máxima: Mínima: Promedio:
Temperatura: 86 °F 63.9 °F 73.4 °F
Punto de rocio: 67.6 °F 55.8 °F 62.1 °F
Humedad: 87% 37.1% 70%
Velocidad viento: 9.7mph 0mph 3.7mph
Racha viento: 16.1mph - -
Viento- - SE
Presión: 30 in 29.9 in -
Precipitación: 0 in    
 
 
Tabla de datos para Septiembre 6, 2019
Hora Temperatura Punto de rocio Presión Viento Velocidad viento Racha viento Humedad Intensidad lluvia(por hora) Nubes
00:04 69.6 °F 61.2 °F 30 in NE 1.4 mph 2 mph 74.8% 0 in
00:09 69.6 °F 61.2 °F 30 in ESE 1.4 mph 3.6 mph 74.7% 0 in
00:14 69.6 °F 61.2 °F 30 in SSE 1.4 mph 5 mph 74.4% 0 in
00:19 69.6 °F 61.3 °F 30 in Sur 1.6 mph 5 mph 75% 0 in
00:24 69.6 °F 61.3 °F 30 in SSO 2.9 mph 5 mph 75% 0 in
00:29 69.6 °F 61.7 °F 30 in SSO 2.9 mph 5 mph 75.9% 0 in
00:34 69.6 °F 62.1 °F 30 in SSO 2.9 mph 5 mph 76.8% 0 in
00:39 70 °F 62.4 °F 30 in SSO 2.9 mph 5 mph 77% 0 in
00:44 70.2 °F 62.2 °F 30 in Sur 2.9 mph 5 mph 76.3% 0 in
00:49 70.2 °F 61.9 °F 30 in Sur 2.9 mph 5 mph 75.2% 0 in
00:54 70.2 °F 61.9 °F 30 in Sur 2.9 mph 6.2 mph 75% 0 in
00:59 70 °F 61.7 °F 30 in Sur 3.2 mph 6.9 mph 75% 0 in
01:04 70 °F 61.9 °F 30 in SSO 4.3 mph 7 mph 75.4% 0 in
01:09 69.8 °F 61.9 °F 30 in SSO 4.3 mph 7 mph 76% 0 in
01:14 69.8 °F 61.9 °F 30 in SSO 4.7 mph 6 mph 76.1% 0 in
01:19 69.8 °F 62.2 °F 30 in SSO 4.6 mph 6.4 mph 77% 0 in
01:24 70 °F 62.6 °F 30 in SO 4 mph 8.1 mph 77.9% 0 in
01:29 70 °F 63.1 °F 30 in SO 4 mph 8 mph 78.8% 0 in
01:34 70 °F 63.3 °F 30 in SO 4.3 mph 6 mph 79.6% 0 in
01:39 70 °F 63.5 °F 30 in SO 4.3 mph 6 mph 80.1% 0 in
01:44 69.8 °F 63.7 °F 30 in SO 4 mph 6 mph 81% 0 in
01:49 69.8 °F 63.7 °F 30 in SO 4 mph 6.2 mph 81% 0 in
01:54 69.8 °F 63.7 °F 30 in SO 3.6 mph 6 mph 81% 0 in
01:59 69.8 °F 63.7 °F 30 in SO 3.4 mph 6 mph 81% 0 in
02:04 69.6 °F 63.5 °F 30 in SSO 2.9 mph 6.9 mph 81% 0 in
02:09 69.6 °F 63.5 °F 30 in SSO 3 mph 7 mph 81% 0 in
02:14 69.6 °F 63.5 °F 30 in SSO 4 mph 7 mph 80.8% 0 in
02:19 69.6 °F 63.1 °F 30 in SSO 3.9 mph 5 mph 80% 0 in
02:24 69.6 °F 63.5 °F 30 in OSO 3.1 mph 5 mph 80.9% 0 in
02:29 69.4 °F 63.5 °F 30 in OSO 2.9 mph 5 mph 81% 0 in
02:34 69.4 °F 63.7 °F 30 in OSO 2 mph 5.9 mph 82% 0 in
02:39 69.4 °F 63.7 °F 30 in SO 2.2 mph 6 mph 82% 0 in
02:44 69.4 °F 63.7 °F 30 in SSO 3.1 mph 6.9 mph 82% 0 in
02:49 69.3 °F 63.5 °F 30 in SSO 3.1 mph 7 mph 82% 0 in
02:54 69.3 °F 63.5 °F 30 in SO 3.1 mph 6.9 mph 82% 0 in
02:59 69.1 °F 63.5 °F 30 in SO 3.1 mph 7 mph 82% 0 in
03:04 69.1 °F 63.3 °F 30 in SSO 3.1 mph 5.8 mph 82% 0 in
03:09 69.1 °F 63.3 °F 30 in SSO 3.1 mph 6 mph 82% 0 in
03:14 68.9 °F 63.1 °F 30 in SSO 3.1 mph 5 mph 82% 0 in
03:19 68.7 °F 63.1 °F 30 in SSO 3.1 mph 5 mph 82.7% 0 in
03:24 68.5 °F 63 °F 30 in SO 3.1 mph 5.2 mph 82.5% 0 in
03:29 68.5 °F 62.8 °F 30 in SO 3.2 mph 5.9 mph 82% 0 in
03:34 68.5 °F 62.6 °F 30 in SO 3.6 mph 6 mph 81.5% 0 in
03:39 68.5 °F 62.4 °F 30 in SO 3.5 mph 6 mph 81% 0 in
03:44 68.5 °F 62.4 °F 30 in SSO 3.1 mph 5 mph 81% 0 in
03:49 68.5 °F 62.4 °F 30 in SSO 3.1 mph 5 mph 81% 0 in
03:54 68.4 °F 62.4 °F 30 in Sur 3.1 mph 5 mph 81% 0 in
03:59 68.4 °F 62.2 °F 30 in SSO 3.1 mph 5.2 mph 81% 0 in
04:04 68.4 °F 62.2 °F 30 in SSO 3.1 mph 5 mph 81% 0 in
04:09 68.4 °F 62.2 °F 30 in SSO 3 mph 5 mph 81% 0 in
04:14 68.2 °F 62.1 °F 30 in SSO 2.4 mph 5 mph 81% 0 in
04:19 68 °F 61.9 °F 30 in SSO 2 mph 2.4 mph 81% 0 in
04:24 67.8 °F 61.9 °F 30 in Calm   2 mph 81% 0 in
04:29 67.8 °F 61.7 °F 30 in Calm   2.4 mph 81% 0 in
04:34 67.6 °F 61.5 °F 30 in Calm   2.3 mph 81% 0 in
04:39 67.5 °F 61.3 °F 30 in Calm   2 mph 81% 0 in
04:44 67.5 °F 61.5 °F 30 in Calm   1 mph 81.4% 0 in
04:49 67.3 °F 61.5 °F 30 in Calm   3.5 mph 81.7% 0 in
04:54 67.1 °F 61.3 °F 30 in Calm   3.5 mph 81.7% 0 in
04:59 66.9 °F 61.2 °F 30 in SSO 0.4 mph 3.6 mph 82% 0 in
05:04 66.9 °F 61.5 °F 30 in Sur 2 mph 4.6 mph 82.6% 0 in
05:09 66.7 °F 61.3 °F 30 in Sur 2.2 mph 5 mph 83% 0 in
05:14 66.7 °F 61.3 °F 30 in Sur 2.9 mph 5 mph 83% 0 in
05:19 66.6 °F 61.2 °F 30 in Sur 2.7 mph 4 mph 83% 0 in
05:24 66.6 °F 61.2 °F 30 in SSE 2 mph 3.6 mph 83% 0 in
05:29 66.6 °F 61.2 °F 30 in SSE 2 mph 4 mph 83% 0 in
05:34 66.4 °F 61.2 °F 30 in SSE 1.8 mph 2.4 mph 83% 0 in
05:39 66.4 °F 61.2 °F 30 in SSE 1.7 mph 3.6 mph 83.7% 0 in
05:44 66.2 °F 61.2 °F 30 in OSO 1.4 mph 4.6 mph 84% 0 in
05:49 66.2 °F 61.2 °F 30 in OSO 1.6 mph 5 mph 84% 0 in
05:54 66.2 °F 61.2 °F 30 in OSO 2.4 mph 5.2 mph 84% 0 in
05:59 66.2 °F 61.2 °F 30 in SSO 2.5 mph 5 mph 84% 0 in
06:04 66.2 °F 61.2 °F 30 in SSO 2.9 mph 6.9 mph 84% 0 in
06:09 66.2 °F 61.2 °F 30 in SSO 3.1 mph 7 mph 84% 0 in
06:14 66.2 °F 61.2 °F 30 in Sur 4.3 mph 6 mph 83.9% 0 in
06:19 66 °F 60.8 °F 30 in Sur 4.1 mph 5 mph 83% 0 in
06:24 66 °F 60.6 °F 30 in SSE 3.1 mph 5.2 mph 83% 0 in
06:29 65.8 °F 60.4 °F 30 in SSE 2.9 mph 5 mph 83% 0 in
06:34 65.7 °F 60.4 °F 30 in SSE 2 mph 3 mph 83% 0 in
06:39 65.7 °F 60.6 °F 30 in SSE 1.9 mph 3.5 mph 83.9% 0 in
06:44 65.5 °F 60.4 °F 30 in SSE 1.4 mph 3 mph 84% 0 in
06:49 65.1 °F 60.4 °F 30 in SSE 1.4 mph 4 mph 84.9% 0 in
06:54 65.1 °F 60.4 °F 30 in SSE 1.4 mph 5 mph 85% 0 in
06:59 65.1 °F 60.6 °F 30 in SSE 1.7 mph 5 mph 85% 0 in
07:04 65.3 °F 60.6 °F 30 in SSE 2.9 mph 4 mph 84.6% 0 in
07:09 65.5 °F 60.4 °F 30 in Sur 2.8 mph 4 mph 84% 0 in
07:14 65.5 °F 60.4 °F 30 in SSO 2.4 mph 4 mph 84% 0 in
07:19 65.5 °F 60.4 °F 30 in Sur 2.2 mph 3.5 mph 84% 0 in
07:24 65.5 °F 60.4 °F 30 in SSE 1.4 mph 4 mph 84% 0 in
07:29 65.5 °F 60.1 °F 30 in SSE 1.7 mph 5.8 mph 83.1% 0 in
07:34 65.1 °F 59.9 °F 30 in SSE 2.9 mph 6 mph 83% 0 in
07:39 64.9 °F 59.9 °F 30 in SSE 3 mph 5.8 mph 83.4% 0 in
07:44 64.8 °F 59.9 °F 30 in SSE 3.6 mph 6.9 mph 84% 0 in
07:49 64.6 °F 59.5 °F 30 in SSE 3.7 mph 8.1 mph 84% 0 in
07:54 64.2 °F 59.4 °F 30 in SSE 4.7 mph 8.1 mph 84.2% 0 in
07:59 64 °F 59.4 °F 30 in Sur 4.6 mph 8 mph 85% 0 in
08:04 63.9 °F 59.4 °F 30 in SO 4.3 mph 6 mph 85.2% 0 in
08:09 64 °F 59.7 °F 30 in SO 4.1 mph 5.2 mph 86% 0 in
08:14 64.2 °F 59.9 °F 30 in OSO 2.9 mph 5.9 mph 85.9% 0 in
08:19 64.4 °F 59.7 °F 30 in SO 2.9 mph 6 mph 85% 0 in
08:24 64.6 °F 59.9 °F 30 in OSO 3.1 mph 6 mph 85% 0 in
08:29 64.8 °F 60.1 °F 30 in SO 3 mph 5.2 mph 85% 0 in
08:34 64.8 °F 60.1 °F 30 in SSO 2.9 mph 5 mph 85% 0 in
08:39 64.9 °F 60.3 °F 30 in Sur 2.8 mph 5 mph 84.6% 0 in
08:44 65.1 °F 59.9 °F 30 in SSE 2.4 mph 6.2 mph 83.4% 0 in
08:49 64.9 °F 59.7 °F 30 in SSE 2.7 mph 6.9 mph 83% 0 in
08:54 64.8 °F 59.4 °F 30 in SSE 4.3 mph 8.1 mph 83% 0 in
08:59 64.6 °F 59.4 °F 30 in Sur 4.5 mph 8.1 mph 83.5% 0 in
09:04 64.4 °F 59.2 °F 30 in SSO 5.2 mph 7.4 mph 83.3% 0 in
09:09 64.4 °F 59.4 °F 30 in Sur 5.1 mph 8.1 mph 83.8% 0 in
09:14 64.6 °F 59.4 °F 30 in Sur 4.7 mph 8.1 mph 83.4% 0 in
09:19 64.8 °F 59.5 °F 30 in SSE 4.8 mph 8.1 mph 83% 0 in
09:24 64.9 °F 59.7 °F 30 in Sur 5.2 mph 8 mph 82.6% 0 in
09:29 65.5 °F 59.5 °F 30 in SSO 5.1 mph 8.1 mph 81.5% 0 in
09:34 65.7 °F 59.7 °F 30 in SO 4.7 mph 8 mph 81.2% 0 in
09:39 65.8 °F 59.7 °F 30 in OSO 4.5 mph 7.4 mph 80.6% 0 in
09:44 66.2 °F 59.5 °F 30 in OSO 3.6 mph 7 mph 79.4% 0 in
09:49 66.4 °F 59.7 °F 30 in OSO 3.6 mph 7 mph 79% 0 in
09:54 66.7 °F 59.9 °F 30 in SO 3.6 mph 5 mph 78.7% 0 in
09:59 67.1 °F 59.9 °F 30 in SO 3.4 mph 5 mph 77.9% 0 in
10:04 67.6 °F 60.1 °F 30 in Oeste 2.4 mph 5 mph 76.9% 0 in
10:09 68 °F 60.3 °F 30 in SSO 2.3 mph 4 mph 76% 0 in
10:14 68.5 °F 60.3 °F 30 in OSO 1.8 mph 4.7 mph 74.6% 0 in
10:19 69.1 °F 60.3 °F 30 in ONO 1.9 mph 5 mph 73.3% 0 in
10:24 69.4 °F 60.1 °F 30 in ONO 2 mph 5 mph 72.1% 0 in
10:29 69.8 °F 60.3 °F 30 in OSO 2.1 mph 5 mph 71.7% 0 in
10:34 70.2 °F 59.9 °F 30 in OSO 2.4 mph 5 mph 69.9% 0 in
10:39 70.9 °F 59.7 °F 30 in Oeste 2.4 mph 4.7 mph 68.1% 0 in
10:44 71.1 °F 59.9 °F 30 in Oeste 2 mph 5.9 mph 67.7% 0 in
10:49 71.2 °F 59.9 °F 30 in OSO 2 mph 6 mph 67.2% 0 in
10:54 72 °F 60.4 °F 30 in OSO 2 mph 3 mph 67.1% 0 in
10:59 72.9 °F 60.4 °F 30 in ENE 2 mph 3.6 mph 64.9% 0 in
11:04 73.8 °F 60.3 °F 30 in ENE 1.8 mph 4.6 mph 63% 0 in
11:09 74.1 °F 60.3 °F 30 in ENE 1.8 mph 5 mph 61.7% 0 in
11:14 74.7 °F 60.3 °F 30 in Este 1.8 mph 4 mph 61% 0 in
11:19 75.4 °F 60.6 °F 30 in NE 1.9 mph 5.2 mph 60.5% 0 in
11:24 75.4 °F 60.6 °F 30 in ENE 2 mph 6.9 mph 60.2% 0 in
11:29 75.4 °F 60.4 °F 30 in ESE 2.1 mph 7 mph 60% 0 in
11:34 75.6 °F 59.5 °F 30 in ESE 2.4 mph 4.6 mph 57.7% 0 in
11:39 75.7 °F 58.1 °F 30 in SE 2.4 mph 5.2 mph 54.2% 0 in
11:44 76.1 °F 57.7 °F 30 in Este 2.4 mph 5 mph 53.1% 0 in
11:49 76.6 °F 56.7 °F 30 in Este 2.3 mph 5 mph 50.2% 0 in
11:54 76.8 °F 56.8 °F 30 in Este 2 mph 5.9 mph 50% 0 in
11:59 77.4 °F 57 °F 30 in ESE 2.1 mph 6 mph 49.5% 0 in
12:04 77.5 °F 56.8 °F 30 in ESE 2.4 mph 6 mph 48.9% 0 in
12:09 77.7 °F 55.9 °F 30 in Sur 2.5 mph 5 mph 47% 0 in
12:14 78.1 °F 56.3 °F 30 in SE 2.9 mph 5.8 mph 47% 0 in
12:19 78.6 °F 55.8 °F 30 in ENE 2.8 mph 6 mph 45.5% 0 in
12:24 79.2 °F 56.3 °F 30 in Este 2.4 mph 5 mph 45.5% 0 in
12:29 79.3 °F 55.9 °F 30 in SSE 2.5 mph 6.2 mph 44.5% 0 in
12:34 79.5 °F 56.3 °F 30 in ONO 2.9 mph 6 mph 45% 0 in
12:39 79.7 °F 56.3 °F 30 in Este 2.8 mph 5.2 mph 44.6% 0 in
12:44 79.7 °F 55.9 °F 30 in ENE 2.4 mph 5 mph 44% 0 in
12:49 79.7 °F 55.9 °F 30 in Este 2.5 mph 5 mph 44.2% 0 in
12:54 79.9 °F 56.1 °F 30 in NE 2.9 mph 5 mph 44.1% 0 in
12:59 80.2 °F 56.3 °F 30 in SE 2.8 mph 5.2 mph 44% 0 in
13:04 80.4 °F 56.5 °F 30 in ENE 2.4 mph 5.8 mph 44.1% 0 in
13:09 80.8 °F 56.7 °F 30 in NE 2.5 mph 6 mph 43.9% 0 in
13:14 80.8 °F 56.7 °F 30 in NNE 2.9 mph 6.4 mph 43.7% 0 in
13:19 80.8 °F 56.8 °F 30 in NE 3 mph 7.4 mph 44.1% 0 in
13:24 80.6 °F 56.7 °F 30 in NNE 4 mph 7 mph 44% 0 in
13:29 80.6 °F 56.7 °F 30 in NE 4 mph 7.4 mph 44% 0 in
13:34 80.4 °F 56.7 °F 30 in NE 4 mph 7 mph 44.3% 0 in
13:39 80.4 °F 56.7 °F 30 in NE 3.9 mph 6.4 mph 44.3% 0 in
13:44 80.8 °F 56.8 °F 30 in NNE 3.1 mph 8.1 mph 44% 0 in
13:49 81.1 °F 57.2 °F 30 in NNE 3.2 mph 8 mph 44.1% 0 in
13:54 81.1 °F 57.2 °F 30 in NNE 4 mph 6 mph 44% 0 in
13:59 81.5 °F 57.4 °F 30 in NNE 3.8 mph 6.9 mph 43.9% 0 in
14:04 81.7 °F 57 °F 30 in North 2.9 mph 7 mph 43% 0 in
14:09 81.9 °F 57 °F 30 in NNO 2.8 mph 6 mph 42.7% 0 in
14:14 82 °F 56.8 °F 30 in North 2.4 mph 6.9 mph 42% 0 in
14:19 82.4 °F 57 °F 30 in North 2.5 mph 7 mph 42% 0 in
14:24 82.4 °F 56.8 °F 30 in North 3.1 mph 7 mph 41.8% 0 in
14:29 82.2 °F 56.8 °F 30 in NO 3.2 mph 6.4 mph 42% 0 in
14:34 82.6 °F 56.8 °F 30 in NNE 3.6 mph 8.7 mph 41.5% 0 in
14:39 82.8 °F 56.7 °F 30 in NE 3.7 mph 9.2 mph 41% 0 in
14:44 82.8 °F 56.8 °F 30 in ENE 4 mph 8 mph 41.1% 0 in
14:49 83.1 °F 56.8 °F 30 in NNE 3.9 mph 6 mph 40.7% 0 in
14:54 83.7 °F 56.7 °F 30 in NNO 2.9 mph 6.2 mph 40% 0 in
14:59 83.8 °F 56.8 °F 30 in ENE 3 mph 6.2 mph 40% 0 in
15:04 84.2 °F 56.7 °F 30 in NE 3.6 mph 6 mph 39.3% 0 in
15:09 84.6 °F 56.7 °F 30 in NNO 3.4 mph 5.2 mph 38.9% 0 in
15:14 84.7 °F 56.3 °F 30 in North 2.4 mph 6.2 mph 37.8% 0 in
15:19 84.9 °F 55.8 °F 30 in SE 2.5 mph 8.1 mph 37.2% 0 in
15:24 85.1 °F 56.5 °F 30 in NE 3.1 mph 8 mph 37.8% 0 in
15:29 85.5 °F 56.3 °F 30 in NE 3 mph 6.2 mph 37.1% 0 in
15:34 85.8 °F 57.4 °F 30 in NE 2.9 mph 8.1 mph 38.3% 0 in
15:39 85.6 °F 57.9 °F 30 in NE 3 mph 8 mph 39% 0 in
15:44 85.6 °F 58.1 °F 30 in NNE 3.6 mph 7 mph 39.4% 0 in
15:49 85.6 °F 57.9 °F 30 in NE 3.7 mph 9.2 mph 39.1% 0 in
15:54 85.5 °F 58.3 °F 30 in NNE 4.3 mph 9 mph 39.8% 0 in
15:59 85.5 °F 58.5 °F 30 in NNE 4.3 mph 9.2 mph 39.9% 0 in
16:04 85.6 °F 57.9 °F 30 in NE 4.3 mph 9 mph 39.3% 0 in
16:09 85.6 °F 57.9 °F 30 in NNE 4.5 mph 10.4 mph 39.2% 0 in
16:14 85.6 °F 57.9 °F 30 in NNE 5.4 mph 10 mph 39.1% 0 in
16:19 85.6 °F 57.9 °F 30 in NE 5.4 mph 9 mph 39% 0 in
16:24 85.8 °F 58.1 °F 30 in NE 5.4 mph 10.4 mph 39% 0 in
16:29 86 °F 58.1 °F 30 in NE 5.4 mph 10 mph 38.9% 0 in
16:34 86 °F 59.2 °F 30 in NE 5.4 mph 10.7 mph 40.4% 0 in
16:39 85.8 °F 60.6 °F 30 in NE 5.7 mph 12.5 mph 42.8% 0 in
16:44 85.8 °F 62.2 °F 30 in NE 6.9 mph 13 mph 45.3% 0 in
16:49 85.6 °F 64.8 °F 30 in NE 6.9 mph 12 mph 49.6% 0 in
16:54 84.9 °F 65.3 °F 30 in NE 6.9 mph 15 mph 52% 0 in
16:59 84.4 °F 66.6 °F 30 in NE 7.3 mph 15 mph 55.2% 0 in
17:04 83.8 °F 67.1 °F 30 in NE 8.7 mph 14 mph 57.3% 0 in
17:09 83.5 °F 67.5 °F 30 in NE 8.8 mph 16.1 mph 58.5% 0 in
17:14 83.1 °F 67.5 °F 30 in NE 9.2 mph 16 mph 59.5% 0 in
17:19 82.8 °F 67.6 °F 30 in NNE 9 mph 15 mph 60.2% 0 in
17:24 82.8 °F 67.6 °F 29.9 in NE 8.1 mph 13 mph 60.4% 0 in
17:29 82.9 °F 67.6 °F 29.9 in NE 7.6 mph 10 mph 60.1% 0 in
17:34 82.9 °F 67.3 °F 29.9 in NE 5.2 mph 10.4 mph 59.5% 0 in
17:39 82.8 °F 67.1 °F 29.9 in NE 5.2 mph 10.4 mph 59% 0 in
17:44 82.8 °F 66 °F 29.9 in ESE 5.4 mph 10 mph 57.1% 0 in
17:49 82.8 °F 65.8 °F 29.9 in NE 5 mph 6.9 mph 56.7% 0 in
17:54 82.9 °F 66.4 °F 29.9 in NE 2.9 mph 11.4 mph 57.7% 0 in
17:59 82.6 °F 67.3 °F 29.9 in NE 3.5 mph 13 mph 60% 0 in
18:04 82 °F 67.1 °F 29.9 in NE 5.9 mph 14 mph 60.7% 0 in
18:09 81.7 °F 66 °F 29.9 in ENE 6 mph 14 mph 59.3% 0 in
18:14 81.9 °F 65.7 °F 29.9 in NNE 6.4 mph 10 mph 58.2% 0 in
18:19 81.9 °F 65.8 °F 29.9 in NE 6.2 mph 11.8 mph 58.6% 0 in
18:24 81.7 °F 66 °F 29.9 in Este 5.2 mph 12 mph 58.8% 0 in
18:29 81.7 °F 65.7 °F 29.9 in ENE 5.1 mph 9.7 mph 58.6% 0 in
18:34 81.5 °F 65.8 °F 29.9 in NE 4.7 mph 10 mph 59% 0 in
18:39 81.1 °F 66.7 °F 29.9 in NNE 4.8 mph 11.5 mph 61.3% 0 in
18:44 80.8 °F 66.4 °F 29.9 in NE 5.4 mph 12 mph 62% 0 in
18:49 80.4 °F 66.2 °F 30 in NNE 5.7 mph 14.5 mph 62.1% 0 in
18:54 79.9 °F 67.3 °F 30 in NE 6.9 mph 15.9 mph 65.6% 0 in
18:59 79 °F 67.5 °F 30 in NE 7.3 mph 16 mph 67.7% 0 in
19:04 78.4 °F 67.6 °F 30 in NE 9.2 mph 15.2 mph 69.4% 0 in
19:09 77.9 °F 67.5 °F 30 in NE 9.3 mph 15.2 mph 70.4% 0 in
19:14 77.5 °F 67.6 °F 30 in NE 9.7 mph 16.1 mph 71.7% 0 in
19:19 77.4 °F 67.5 °F 30 in NE 9.5 mph 16 mph 72% 0 in
19:24 76.8 °F 67.5 °F 30 in NE 8.7 mph 15 mph 72.5% 0 in
19:29 76.6 °F 67.3 °F 30 in NE 8.7 mph 15 mph 73% 0 in
19:34 76.5 °F 67.5 °F 30 in NE 8.5 mph 14 mph 73.9% 0 in
19:39 76.1 °F 67.3 °F 30 in NE 8.4 mph 14 mph 74.1% 0 in
19:44 75.9 °F 67.3 °F 30 in NE 8.1 mph 14 mph 75% 0 in
19:49 75.7 °F 67.5 °F 30 in NE 8 mph 14 mph 75.5% 0 in
19:54 75.6 °F 67.5 °F 30 in NE 7.6 mph 13 mph 76% 0 in
19:59 75.4 °F 67.6 °F 30 in NE 7.3 mph 12 mph 76.9% 0 in
20:04 75 °F 67.5 °F 30 in NE 6.4 mph 11.5 mph 77.2% 0 in
20:09 74.8 °F 67.5 °F 30 in NE 6.4 mph 12 mph 78% 0 in
20:14 74.7 °F 67.3 °F 30 in NNE 6.4 mph 11.2 mph 78% 0 in
20:19 74.5 °F 67.3 °F 30 in NE 6.5 mph 12.7 mph 78.4% 0 in
20:24 74.1 °F 67.3 °F 30 in NE 6.9 mph 13 mph 79% 0 in
20:29 73.9 °F 67.5 °F 30 in NNE 6.8 mph 10.4 mph 79.7% 0 in
20:34 73.9 °F 67.5 °F 30 in NE 6.4 mph 10.4 mph 80.1% 0 in
20:39 73.8 °F 67.6 °F 30 in NNE 6.4 mph 11.5 mph 81% 0 in
20:44 73.6 °F 67.5 °F 30 in NNE 6.4 mph 12 mph 81.4% 0 in
20:49 73.4 °F 67.5 °F 30 in NE 6.5 mph 12 mph 82% 0 in
20:54 73.2 °F 67.5 °F 30 in NNE 6.9 mph 11 mph 82.3% 0 in
20:59 73 °F 67.6 °F 30 in NE 6.9 mph 10.4 mph 83% 0 in
21:04 73 °F 67.5 °F 30 in NE 6.9 mph 10.4 mph 83% 0 in
21:09 72.9 °F 67.5 °F 30 in NE 6.7 mph 10 mph 83.1% 0 in
21:14 72.9 °F 67.6 °F 30 in NE 5.9 mph 9 mph 84% 0 in
21:19 72.9 °F 67.6 °F 30 in NE 5.8 mph 9.2 mph 84% 0 in
21:24 72.7 °F 67.6 °F 30 in NNE 5.2 mph 9 mph 84% 0 in
21:29 72.7 °F 67.5 °F 30 in NNE 5.1 mph 7.4 mph 84% 0 in
21:34 72.5 °F 67.5 °F 30 in NNE 4.7 mph 8.5 mph 84.3% 0 in
21:39 72.3 °F 67.6 °F 30 in NNE 4.7 mph 9 mph 85% 0 in
21:44 72.3 °F 67.6 °F 30 in NNE 4.7 mph 7 mph 85% 0 in
21:49 72.3 °F 67.6 °F 30 in NE 4.6 mph 7.4 mph 85% 0 in
21:54 72.3 °F 67.6 °F 30 in NNE 4 mph 7 mph 85% 0 in
21:59 72.1 °F 67.5 °F 30 in NNE 3.9 mph 5.2 mph 85% 0 in
22:04 72.1 °F 67.5 °F 30 in NNE 3.1 mph 5.8 mph 85% 0 in
22:09 72.1 °F 67.6 °F 30 in NNE 3.1 mph 6 mph 86% 0 in
22:14 72.1 °F 67.6 °F 30 in NNE 3.1 mph 5 mph 86% 0 in
22:19 72 °F 67.5 °F 30 in NNE 3 mph 5 mph 86% 0 in
22:24 72 °F 67.5 °F 30 in NE 2.4 mph 5 mph 86% 0 in
22:29 72 °F 67.5 °F 30 in NNE 2.3 mph 5 mph 86% 0 in
22:34 72 °F 67.5 °F 30 in NNE 1.8 mph 3.6 mph 86% 0 in
22:39 72 °F 67.5 °F 30 in NNE 1.9 mph 4 mph 86% 0 in
22:44 71.8 °F 67.5 °F 30 in NNE 2.4 mph 4.6 mph 86% 0 in
22:49 71.8 °F 67.5 °F 30 in NNE 2.3 mph 5 mph 86% 0 in
22:54 71.6 °F 67.3 °F 30 in NNE 1.8 mph 2.9 mph 86% 0 in
22:59 71.6 °F 67.3 °F 30 in NNE 1.8 mph 3 mph 86% 0 in
23:04 71.6 °F 67.5 °F 30 in NNE 1.8 mph 3.5 mph 86.9% 0 in
23:09 71.6 °F 67.5 °F 30 in North 1.7 mph 3.5 mph 87% 0 in
23:14 71.6 °F 67.5 °F 30 in North 1.4 mph 3 mph 87% 0 in
23:19 71.4 °F 67.3 °F 30 in North 1.4 mph 3 mph 87% 0 in
23:24 71.4 °F 67.3 °F 30 in North 1.4 mph 2 mph 87% 0 in
23:29 71.4 °F 67.3 °F 30 in North 1.2 mph 2.3 mph 87% 0 in
23:34 71.4 °F 67.3 °F 30 in Calm   2.9 mph 87% 0 in
23:39 71.4 °F 67.3 °F 30 in North 0.2 mph 3 mph 87% 0 in
23:44 71.4 °F 67.3 °F 30 in North 1.4 mph 2.9 mph 87% 0 in
23:49 71.4 °F 67.3 °F 30 in North 1.4 mph 3.5 mph 87% 0 in
23:54 71.4 °F 67.3 °F 30 in North 1.4 mph 3 mph 87% 0 in
23:59 71.4 °F 67.3 °F 30 in NO 1.4 mph 4.6 mph 87% 0 in
Murcia-Puente Tocinos, España
Compliments of Weather Underground - 3 mb

La estación de MeteoMurcia.com, publica sus datos en los siguientes proyectos:

Weather Underground PWS IMURCIAP2 Meteoclimatic www.awekas.at

W3Counter
Web Analytics